Time;durP1;ratioP1;P1;durP2;ratioP2;P2;SDS_P1;SDS_P2;PMS_P1;PMS_P2;Temp;Humidity;BMP_temperature;BMP_pressure;BME280_temperature;BME280_humidity;BME280_pressure;Samples;Min_cycle;Max_cycle;Signal;HPM_P1;HPM_P2
2023/03/14 00:00:58;;;;;;;5.97;2.58;;;;;;;;;;4993888;28;20038;-70
2023/03/14 00:03:23;;;;;;;8.10;2.85;;;;;;;;;;4984856;28;20022;-71
2023/03/14 00:05:49;;;;;;;7.03;3.03;;;;;;;;;;4983822;28;20072;-71
2023/03/14 00:08:14;;;;;;;4.10;2.38;;;;;;;;;;4987832;28;20041;-70
2023/03/14 00:10:40;;;;;;;3.95;2.70;;;;;;;;;;4984278;28;20023;-71
2023/03/14 00:13:05;;;;;;;5.03;2.50;;;;;;;;;;4983262;28;20026;-71
2023/03/14 00:15:33;;;;;;;6.53;3.15;;;;;;;;;;4982641;28;20037;-70
2023/03/14 00:17:59;;;;;;;4.00;2.35;;;;;;;;;;4979882;28;20472;-69
2023/03/14 00:20:24;;;;;;;3.95;2.40;;;;;;;;;;4983083;28;20037;-69
2023/03/14 00:22:50;;;;;;;5.25;2.63;;;;;;;;;;4982495;28;20473;-69
2023/03/14 00:25:15;;;;;;;4.97;2.63;;;;;;;;;;4981432;28;20026;-68
2023/03/14 00:27:41;;;;;;;5.00;2.50;;;;;;;;;;4983371;28;20057;-69
2023/03/14 00:30:07;;;;;;;3.58;2.25;;;;;;;;;;4981725;28;20481;-69
2023/03/14 00:32:33;;;;;;;3.95;2.38;;;;;;;;;;4986621;28;20081;-69
2023/03/14 00:35:00;;;;;;;3.85;2.50;;;;;;;;;;4993275;28;20026;-68
2023/03/14 00:37:26;;;;;;;4.90;2.55;;;;;;;;;;4993248;28;20427;-69
2023/03/14 00:39:52;;;;;;;2.95;2.20;;;;;;;;;;4993308;28;20061;-69
2023/03/14 00:42:17;;;;;;;4.45;2.40;;;;;;;;;;4993341;28;20026;-69
2023/03/14 00:44:42;;;;;;;4.15;2.38;;;;;;;;;;4993222;28;20034;-68
2023/03/14 00:47:08;;;;;;;4.43;2.55;;;;;;;;;;4993060;28;20057;-68
2023/03/14 00:49:34;;;;;;;4.45;2.38;;;;;;;;;;4993100;28;20113;-68
2023/03/14 00:51:59;;;;;;;4.40;2.42;;;;;;;;;;4993345;28;20101;-68
2023/03/14 00:54:25;;;;;;;3.83;2.65;;;;;;;;;;4993159;28;20488;-70
2023/03/14 00:56:50;;;;;;;4.18;2.22;;;;;;;;;;4993259;28;20033;-68
2023/03/14 00:59:16;;;;;;;3.35;2.60;;;;;;;;;;4991913;28;20045;-69
2023/03/14 01:01:41;;;;;;;3.70;2.40;;;;;;;;;;4993357;28;20490;-69
2023/03/14 01:04:07;;;;;;;3.42;2.72;;;;;;;;;;4997065;28;20022;-69
2023/03/14 01:06:33;;;;;;;3.88;2.47;;;;;;;;;;4996974;28;20497;-69
2023/03/14 01:08:59;;;;;;;8.38;2.70;;;;;;;;;;4997010;28;20029;-69
2023/03/14 01:11:30;;;;;;;3.50;2.30;;;;;;;;;;4997164;28;20023;-69
2023/03/14 01:13:56;;;;;;;3.13;2.35;;;;;;;;;;4997163;28;20463;-68
2023/03/14 01:16:24;;;;;;;4.03;2.33;;;;;;;;;;4996724;28;20034;-68
2023/03/14 01:18:50;;;;;;;4.22;2.28;;;;;;;;;;4996916;28;20030;-70
2023/03/14 01:21:28;;;;;;;3.47;2.33;;;;;;;;;;4996915;28;20365;-68
2023/03/14 01:23:56;;;;;;;4.63;2.45;;;;;;;;;;4996683;28;20048;-68
2023/03/14 01:26:24;;;;;;;3.00;2.00;;;;;;;;;;4996675;28;20369;-69
2023/03/14 01:28:52;;;;;;;2.53;1.80;;;;;;;;;;4996696;28;20025;-68
2023/03/14 01:31:18;;;;;;;3.22;1.95;;;;;;;;;;4996882;28;20046;-69
2023/03/14 01:33:44;;;;;;;3.25;1.92;;;;;;;;;;5014920;28;20463;-68
2023/03/14 01:36:10;;;;;;;3.63;2.17;;;;;;;;;;5013568;28;20025;-69
2023/03/14 01:38:38;;;;;;;4.22;1.95;;;;;;;;;;5014910;28;20430;-68
2023/03/14 01:41:04;;;;;;;3.72;1.77;;;;;;;;;;5014847;28;20136;-69
2023/03/14 01:43:30;;;;;;;3.70;2.20;;;;;;;;;;5014669;28;20018;-68
2023/03/14 01:46:04;;;;;;;4.10;1.88;;;;;;;;;;5014447;28;20494;-68
2023/03/14 01:48:38;;;;;;;3.03;1.90;;;;;;;;;;5014681;28;20022;-68
2023/03/14 01:51:08;;;;;;;3.30;1.80;;;;;;;;;;5014754;28;20490;-69
2023/03/14 01:53:35;;;;;;;3.85;1.88;;;;;;;;;;5014564;28;20030;-69
2023/03/14 01:56:03;;;;;;;2.70;1.77;;;;;;;;;;5014516;28;20044;-68
2023/03/14 01:58:31;;;;;;;3.30;1.88;;;;;;;;;;5014582;28;20037;-70
2023/03/14 02:00:59;;;;;;;2.80;1.90;;;;;;;;;;5014218;28;20026;-69
2023/03/14 02:03:26;;;;;;;3.15;1.63;;;;;;;;;;5014548;28;20032;-69
2023/03/14 02:05:56;;;;;;;5.72;1.75;;;;;;;;;;5014334;28;20033;-69
2023/03/14 02:08:24;;;;;;;3.25;1.70;;;;;;;;;;5014524;28;20057;-70
2023/03/14 02:10:50;;;;;;;4.35;1.73;;;;;;;;;;5014400;28;20097;-69
2023/03/14 02:13:19;;;;;;;4.30;1.67;;;;;;;;;;5014026;28;20030;-72
2023/03/14 02:15:45;;;;;;;2.05;1.40;;;;;;;;;;5014266;28;20092;-69
2023/03/14 02:18:12;;;;;;;4.18;1.50;;;;;;;;;;5014414;28;20026;-71
2023/03/14 02:21:00;;;;;;;5.10;1.42;;;;;;;;;;5014247;28;20029;-68
2023/03/14 02:23:36;;;;;;;2.38;1.38;;;;;;;;;;5014206;28;20029;-69
2023/03/14 02:26:09;;;;;;;2.47;1.33;;;;;;;;;;5014191;28;20044;-70
2023/03/14 02:28:35;;;;;;;2.13;1.40;;;;;;;;;;5012780;28;20046;-68
2023/03/14 02:31:00;;;;;;;4.72;1.55;;;;;;;;;;4973270;28;1189866;-69
2023/03/14 02:33:26;;;;;;;2.78;1.58;;;;;;;;;;5015138;28;20117;-69
2023/03/14 02:35:59;;;;;;;2.63;1.60;;;;;;;;;;5014946;28;20026;-69
2023/03/14 02:38:46;;;;;;;3.72;1.63;;;;;;;;;;5015015;28;20077;-69
2023/03/14 02:41:11;;;;;;;3.80;1.90;;;;;;;;;;5015072;28;20052;-69
2023/03/14 02:43:37;;;;;;;2.72;1.70;;;;;;;;;;5014596;28;20033;-69
2023/03/14 02:46:05;;;;;;;2.55;1.40;;;;;;;;;;5014923;28;20057;-69
2023/03/14 02:48:39;;;;;;;2.08;1.40;;;;;;;;;;5014712;28;20034;-70
2023/03/14 02:51:05;;;;;;;2.22;1.15;;;;;;;;;;5014912;28;20387;-69
2023/03/14 02:53:34;;;;;;;2.17;1.35;;;;;;;;;;5014654;28;20030;-70
2023/03/14 02:56:00;;;;;;;3.75;1.58;;;;;;;;;;5014888;28;20022;-69
2023/03/14 02:58:26;;;;;;;6.50;1.45;;;;;;;;;;5014569;28;20030;-69
2023/03/14 03:00:52;;;;;;;3.03;1.50;;;;;;;;;;5014580;28;20037;-69
2023/03/14 03:03:18;;;;;;;2.97;1.60;;;;;;;;;;5014685;28;20026;-69
2023/03/14 03:05:43;;;;;;;3.83;1.50;;;;;;;;;;5014373;28;20133;-69
2023/03/14 03:08:10;;;;;;;2.20;1.45;;;;;;;;;;5014466;28;20030;-69
2023/03/14 03:10:35;;;;;;;2.00;1.20;;;;;;;;;;5014411;28;20021;-69
2023/03/14 03:13:01;;;;;;;2.92;1.60;;;;;;;;;;5012776;28;20503;-70
2023/03/14 03:15:27;;;;;;;2.25;1.40;;;;;;;;;;5014137;28;20049;-69
2023/03/14 03:17:52;;;;;;;1.85;1.33;;;;;;;;;;5014382;28;20057;-70
2023/03/14 03:20:18;;;;;;;4.13;1.50;;;;;;;;;;5014255;28;20109;-69
2023/03/14 03:22:43;;;;;;;1.95;1.33;;;;;;;;;;5014361;28;20435;-69
2023/03/14 03:25:09;;;;;;;2.15;1.48;;;;;;;;;;5013268;28;20021;-69
2023/03/14 03:27:37;;;;;;;2.10;1.40;;;;;;;;;;5013880;28;20018;-71
2023/03/14 03:30:04;;;;;;;2.70;1.50;;;;;;;;;;5013853;28;20046;-69
2023/03/14 03:32:29;;;;;;;3.42;1.60;;;;;;;;;;5013937;28;20065;-69
2023/03/14 03:34:55;;;;;;;4.15;1.52;;;;;;;;;;5013957;28;20427;-69
2023/03/14 03:37:20;;;;;;;2.03;1.20;;;;;;;;;;5013946;28;20076;-69
2023/03/14 03:39:46;;;;;;;2.90;1.60;;;;;;;;;;5013950;28;20113;-69
2023/03/14 03:42:11;;;;;;;2.53;1.48;;;;;;;;;;5013717;28;20022;-69
2023/03/14 03:44:37;;;;;;;6.10;1.63;;;;;;;;;;5013730;28;20036;-69
2023/03/14 03:47:02;;;;;;;5.63;1.55;;;;;;;;;;5013841;28;20105;-69
2023/03/14 03:49:30;;;;;;;5.15;1.67;;;;;;;;;;5012467;28;20028;-69
2023/03/14 03:51:55;;;;;;;3.90;1.50;;;;;;;;;;5013661;28;20077;-68
2023/03/14 03:54:20;;;;;;;2.20;1.40;;;;;;;;;;5013582;28;20399;-69
2023/03/14 03:56:46;;;;;;;2.40;1.30;;;;;;;;;;5013449;28;20022;-69
2023/03/14 03:59:11;;;;;;;2.05;1.23;;;;;;;;;;5012383;28;20026;-69
2023/03/14 04:01:37;;;;;;;4.00;1.50;;;;;;;;;;5013435;28;20033;-68
2023/03/14 04:04:02;;;;;;;2.33;1.35;;;;;;;;;;5013355;28;20040;-69
2023/03/14 04:06:28;;;;;;;3.47;1.55;;;;;;;;;;5013564;28;20080;-70
2023/03/14 04:08:54;;;;;;;2.20;1.17;;;;;;;;;;5013423;28;20026;-69
2023/03/14 04:11:19;;;;;;;4.05;1.45;;;;;;;;;;5013274;28;20555;-70
2023/03/14 04:13:45;;;;;;;1.70;1.20;;;;;;;;;;5013371;28;20109;-70
2023/03/14 04:16:16;;;;;;;2.40;1.30;;;;;;;;;;5013360;28;20030;-70
2023/03/14 04:18:42;;;;;;;3.45;1.40;;;;;;;;;;5013259;28;20029;-70
2023/03/14 04:21:07;;;;;;;4.00;1.20;;;;;;;;;;5013184;28;20045;-70
2023/03/14 04:23:33;;;;;;;2.72;1.40;;;;;;;;;;5013171;28;20018;-69
2023/03/14 04:25:59;;;;;;;1.85;1.17;;;;;;;;;;5011472;28;20065;-69
2023/03/14 04:28:24;;;;;;;1.80;1.20;;;;;;;;;;5013205;28;20426;-70
2023/03/14 04:30:50;;;;;;;1.58;1.00;;;;;;;;;;5012888;28;20070;-70
2023/03/14 04:33:17;;;;;;;1.90;1.20;;;;;;;;;;5012943;28;20506;-70
2023/03/14 04:35:46;;;;;;;1.98;1.10;;;;;;;;;;5012869;28;20108;-69
2023/03/14 04:38:12;;;;;;;2.95;1.35;;;;;;;;;;5013014;28;20061;-70
2023/03/14 04:40:39;;;;;;;2.13;1.30;;;;;;;;;;5012730;28;20041;-69
2023/03/14 04:43:05;;;;;;;2.88;1.20;;;;;;;;;;5013007;28;20022;-70
2023/03/14 04:45:30;;;;;;;2.65;1.27;;;;;;;;;;5012668;28;20406;-70
2023/03/14 04:47:56;;;;;;;1.45;1.10;;;;;;;;;;5012813;28;20030;-70
2023/03/14 04:50:21;;;;;;;2.92;1.30;;;;;;;;;;5012779;28;20022;-70
2023/03/14 04:52:46;;;;;;;2.17;1.35;;;;;;;;;;5012910;28;20477;-69
2023/03/14 04:55:12;;;;;;;2.97;1.30;;;;;;;;;;5012495;28;20030;-69
2023/03/14 04:57:37;;;;;;;1.88;1.27;;;;;;;;;;5012787;28;20105;-70
2023/03/14 05:00:07;;;;;;;4.88;1.40;;;;;;;;;;5012883;28;20076;-70
2023/03/14 05:02:33;;;;;;;2.53;1.20;;;;;;;;;;5012818;28;20072;-70
2023/03/14 05:04:59;;;;;;;3.00;1.35;;;;;;;;;;5012751;28;20080;-69
2023/03/14 05:07:24;;;;;;;1.92;1.17;;;;;;;;;;5012844;28;20026;-69
2023/03/14 05:09:50;;;;;;;1.50;1.10;;;;;;;;;;5012631;28;20097;-70
2023/03/14 05:12:15;;;;;;;2.00;1.35;;;;;;;;;;5012583;28;20030;-70
2023/03/14 05:14:40;;;;;;;1.90;1.30;;;;;;;;;;5012631;28;20053;-70
2023/03/14 05:17:06;;;;;;;2.47;1.30;;;;;;;;;;5012607;28;20037;-70
2023/03/14 05:19:31;;;;;;;2.75;1.27;;;;;;;;;;5012285;28;20511;-69
2023/03/14 05:21:57;;;;;;;3.63;1.30;;;;;;;;;;5012620;28;20026;-69
2023/03/14 05:24:22;;;;;;;3.80;1.50;;;;;;;;;;5010981;28;20080;-70
2023/03/14 05:26:48;;;;;;;2.97;1.23;;;;;;;;;;5012528;28;20034;-69
2023/03/14 05:29:13;;;;;;;2.83;1.17;;;;;;;;;;5011910;28;20029;-70
2023/03/14 05:31:39;;;;;;;2.05;1.30;;;;;;;;;;5012265;28;20022;-70
2023/03/14 05:34:04;;;;;;;2.92;1.15;;;;;;;;;;5012435;28;20030;-69
2023/03/14 05:36:30;;;;;;;4.05;1.33;;;;;;;;;;5012513;28;20037;-70
2023/03/14 05:38:55;;;;;;;4.25;1.20;;;;;;;;;;5012322;28;20109;-69
2023/03/14 05:41:21;;;;;;;2.78;1.27;;;;;;;;;;5012275;28;20136;-70
2023/03/14 05:43:46;;;;;;;1.25;0.90;;;;;;;;;;5012336;28;20356;-70
2023/03/14 05:46:11;;;;;;;2.22;1.35;;;;;;;;;;5012396;28;20054;-70
2023/03/14 05:48:37;;;;;;;2.42;1.52;;;;;;;;;;5014162;28;20077;-70
2023/03/14 05:51:03;;;;;;;3.33;1.70;;;;;;;;;;5015913;28;20546;-69
2023/03/14 05:53:29;;;;;;;2.80;1.63;;;;;;;;;;5015535;28;20018;-69
2023/03/14 05:55:55;;;;;;;3.25;1.77;;;;;;;;;;5015758;28;20103;-69
2023/03/14 05:58:21;;;;;;;4.35;1.80;;;;;;;;;;5015855;28;20057;-69
2023/03/14 06:00:47;;;;;;;2.90;1.80;;;;;;;;;;5015673;28;20416;-69
2023/03/14 06:03:13;;;;;;;2.80;1.50;;;;;;;;;;5015780;28;20029;-69
2023/03/14 06:05:38;;;;;;;3.22;1.70;;;;;;;;;;5015672;28;20026;-69
2023/03/14 06:08:04;;;;;;;3.03;1.55;;;;;;;;;;5015328;28;20041;-70
2023/03/14 06:10:29;;;;;;;2.45;1.45;;;;;;;;;;5015669;28;20363;-69
2023/03/14 06:12:55;;;;;;;2.30;1.30;;;;;;;;;;5015620;28;20030;-69
2023/03/14 06:15:20;;;;;;;4.72;1.52;;;;;;;;;;5015605;28;20227;-69
2023/03/14 06:17:46;;;;;;;3.10;1.40;;;;;;;;;;5015564;28;20028;-69
2023/03/14 06:20:12;;;;;;;8.00;1.63;;;;;;;;;;5015565;28;20041;-69
2023/03/14 06:22:38;;;;;;;1.80;1.33;;;;;;;;;;5015227;28;20040;-69
2023/03/14 06:25:04;;;;;;;2.15;1.20;;;;;;;;;;5014929;28;20038;-69
2023/03/14 06:27:30;;;;;;;2.60;1.33;;;;;;;;;;5015289;28;20022;-69
2023/03/14 06:29:55;;;;;;;2.40;1.38;;;;;;;;;;5015036;28;20121;-70
2023/03/14 06:32:21;;;;;;;5.75;1.63;;;;;;;;;;5015047;28;20057;-69
2023/03/14 06:34:46;;;;;;;3.65;1.70;;;;;;;;;;5014858;28;20483;-69
2023/03/14 06:37:12;;;;;;;2.95;1.80;;;;;;;;;;5015097;28;20037;-69
2023/03/14 06:39:38;;;;;;;3.70;1.80;;;;;;;;;;5015145;28;20040;-69
2023/03/14 06:42:04;;;;;;;4.07;1.50;;;;;;;;;;5015028;28;20056;-69
2023/03/14 06:44:30;;;;;;;4.00;1.83;;;;;;;;;;5014945;28;20424;-69
2023/03/14 06:46:55;;;;;;;2.47;1.50;;;;;;;;;;5015043;28;20117;-69
2023/03/14 06:49:21;;;;;;;3.22;1.73;;;;;;;;;;5014586;28;20030;-70
2023/03/14 06:51:46;;;;;;;2.33;1.58;;;;;;;;;;5014789;28;20034;-69
2023/03/14 06:54:12;;;;;;;3.42;1.90;;;;;;;;;;5014819;28;20463;-70
2023/03/14 06:56:37;;;;;;;4.07;1.50;;;;;;;;;;5014666;28;20083;-69
2023/03/14 06:59:03;;;;;;;6.18;3.17;;;;;;;;;;5014106;28;20038;-69
2023/03/14 07:01:30;;;;;;;4.82;2.60;;;;;;;;;;5014010;28;20026;-69
2023/03/14 07:03:56;;;;;;;3.80;2.00;;;;;;;;;;5014452;28;20032;-69
2023/03/14 07:06:22;;;;;;;4.50;1.50;;;;;;;;;;5014381;28;20426;-70
2023/03/14 07:08:48;;;;;;;3.60;1.55;;;;;;;;;;5014506;28;20480;-69
2023/03/14 07:11:13;;;;;;;4.18;1.77;;;;;;;;;;5014573;28;20144;-69
2023/03/14 07:13:39;;;;;;;4.80;1.73;;;;;;;;;;5014474;28;20416;-69
2023/03/14 07:16:05;;;;;;;3.85;1.98;;;;;;;;;;5014542;28;20041;-69
2023/03/14 07:18:30;;;;;;;2.17;1.50;;;;;;;;;;5013808;28;20463;-70
2023/03/14 07:20:56;;;;;;;2.97;2.13;;;;;;;;;;5014444;28;20084;-70
2023/03/14 07:23:21;;;;;;;4.10;1.27;;;;;;;;;;5013929;28;20133;-70
2023/03/14 07:25:47;;;;;;;3.75;1.50;;;;;;;;;;5014149;28;20061;-70
2023/03/14 07:28:12;;;;;;;3.65;1.38;;;;;;;;;;5014124;28;20022;-69
2023/03/14 07:30:37;;;;;;;6.25;1.75;;;;;;;;;;5013971;28;20176;-69
2023/03/14 07:33:03;;;;;;;4.25;1.63;;;;;;;;;;5013645;28;20088;-69
2023/03/14 07:35:28;;;;;;;3.17;1.73;;;;;;;;;;5013896;28;20108;-72
2023/03/14 07:37:54;;;;;;;2.28;1.52;;;;;;;;;;5014067;28;20104;-70
2023/03/14 07:40:19;;;;;;;3.42;1.27;;;;;;;;;;5014085;28;20034;-69
2023/03/14 07:42:45;;;;;;;2.33;1.45;;;;;;;;;;5013972;28;20022;-69
2023/03/14 07:45:11;;;;;;;3.10;1.30;;;;;;;;;;5013763;28;20026;-69
2023/03/14 07:47:36;;;;;;;2.50;1.33;;;;;;;;;;5013496;28;20026;-69
2023/03/14 07:50:03;;;;;;;3.50;1.65;;;;;;;;;;5013900;28;20148;-69
2023/03/14 07:52:29;;;;;;;1.80;1.13;;;;;;;;;;5013752;28;20034;-69
2023/03/14 07:54:54;;;;;;;2.83;1.40;;;;;;;;;;5013689;28;20026;-69
2023/03/14 07:57:20;;;;;;;2.85;1.50;;;;;;;;;;5013697;28;20025;-69
2023/03/14 07:59:45;;;;;;;5.72;1.20;;;;;;;;;;5013614;28;20030;-69
2023/03/14 08:02:12;;;;;;;3.75;1.30;;;;;;;;;;4998765;28;20460;-70
2023/03/14 08:04:39;;;;;;;1.95;1.10;;;;;;;;;;4984954;28;20033;-70
2023/03/14 08:07:05;;;;;;;3.38;1.23;;;;;;;;;;4978140;28;20054;-69
2023/03/14 08:09:30;;;;;;;2.38;1.33;;;;;;;;;;4974422;28;20484;-69
2023/03/14 08:11:56;;;;;;;4.28;1.13;;;;;;;;;;4973964;28;20033;-69
2023/03/14 08:14:23;;;;;;;3.28;1.33;;;;;;;;;;4974287;28;20057;-69
2023/03/14 08:16:49;;;;;;;3.70;1.30;;;;;;;;;;4973962;28;20025;-69
2023/03/14 08:19:15;;;;;;;3.13;1.48;;;;;;;;;;4981289;28;20031;-70
2023/03/14 08:21:40;;;;;;;3.10;1.27;;;;;;;;;;4992987;28;20495;-69
2023/03/14 08:24:06;;;;;;;2.25;1.00;;;;;;;;;;4993214;28;20037;-69
2023/03/14 08:26:31;;;;;;;2.55;1.42;;;;;;;;;;4993097;28;20030;-70
2023/03/14 08:28:57;;;;;;;4.90;1.92;;;;;;;;;;4993114;28;20030;-70
2023/03/14 08:31:22;;;;;;;3.42;1.15;;;;;;;;;;4996249;28;20038;-69
2023/03/14 08:33:48;;;;;;;3.40;1.48;;;;;;;;;;5012671;28;20026;-68
2023/03/14 08:36:13;;;;;;;3.42;1.60;;;;;;;;;;5012778;28;20101;-68
2023/03/14 08:38:39;;;;;;;2.58;1.30;;;;;;;;;;5012794;28;20201;-68
2023/03/14 08:41:04;;;;;;;4.55;1.20;;;;;;;;;;5011295;28;20382;-68
2023/03/14 08:43:30;;;;;;;2.92;1.20;;;;;;;;;;5012460;28;20032;-69
2023/03/14 08:46:00;;;;;;;4.22;1.27;;;;;;;;;;5012264;28;20442;-68
2023/03/14 08:48:26;;;;;;;4.53;1.58;;;;;;;;;;5012653;28;20065;-68
2023/03/14 08:50:52;;;;;;;2.72;1.50;;;;;;;;;;5012719;28;20058;-68
2023/03/14 08:53:18;;;;;;;3.15;1.42;;;;;;;;;;5012355;28;20061;-68
2023/03/14 08:55:43;;;;;;;5.68;1.20;;;;;;;;;;5012381;28;20042;-69
2023/03/14 08:58:09;;;;;;;2.88;1.33;;;;;;;;;;5012460;28;20028;-68
2023/03/14 09:00:34;;;;;;;2.50;1.40;;;;;;;;;;5012347;28;20410;-69
2023/03/14 09:03:00;;;;;;;4.15;1.40;;;;;;;;;;5012461;28;20536;-69
2023/03/14 09:05:25;;;;;;;3.60;1.27;;;;;;;;;;5012060;28;20022;-69
2023/03/14 09:07:51;;;;;;;2.60;1.10;;;;;;;;;;5012280;28;20026;-69
2023/03/14 09:10:16;;;;;;;6.90;1.30;;;;;;;;;;5012264;28;20471;-69
2023/03/14 09:12:42;;;;;;;3.03;1.23;;;;;;;;;;5012418;28;20034;-68
2023/03/14 09:15:08;;;;;;;5.38;1.02;;;;;;;;;;5012060;28;20385;-70
2023/03/14 09:17:33;;;;;;;2.70;1.10;;;;;;;;;;5012300;28;20030;-70
2023/03/14 09:19:59;;;;;;;3.13;1.20;;;;;;;;;;5012227;28;20045;-70
2023/03/14 09:22:25;;;;;;;3.90;1.35;;;;;;;;;;5012381;28;20084;-69
2023/03/14 09:24:50;;;;;;;3.03;1.23;;;;;;;;;;5016038;28;20021;-69
2023/03/14 09:27:16;;;;;;;3.33;1.10;;;;;;;;;;5015902;28;20490;-69
2023/03/14 09:29:41;;;;;;;7.28;1.50;;;;;;;;;;5015601;28;20053;-68
2023/03/14 09:32:06;;;;;;;2.50;1.10;;;;;;;;;;5015854;28;20022;-68
2023/03/14 09:34:32;;;;;;;2.95;1.00;;;;;;;;;;5015903;28;20034;-68
2023/03/14 09:36:57;;;;;;;4.32;0.82;;;;;;;;;;5015900;28;20017;-67
2023/03/14 09:39:23;;;;;;;3.28;1.30;;;;;;;;;;5015950;28;20424;-68
2023/03/14 09:41:54;;;;;;;2.88;0.82;;;;;;;;;;5015770;28;20022;-68
2023/03/14 09:44:32;;;;;;;7.47;1.17;;;;;;;;;;5015470;28;20064;-68
2023/03/14 09:47:02;;;;;;;3.22;0.90;;;;;;;;;;5015798;28;20037;-68
2023/03/14 09:49:35;;;;;;;2.47;1.00;;;;;;;;;;5015560;28;20476;-68
2023/03/14 09:52:10;;;;;;;2.83;0.80;;;;;;;;;;5015672;28;20026;-68
2023/03/14 09:54:44;;;;;;;3.83;1.30;;;;;;;;;;5015508;28;20160;-68
2023/03/14 09:57:20;;;;;;;3.03;0.80;;;;;;;;;;5015624;28;20062;-68
2023/03/14 09:59:47;;;;;;;5.45;1.05;;;;;;;;;;5015135;28;20152;-68
2023/03/14 10:02:22;;;;;;;3.10;1.10;;;;;;;;;;5015607;28;20054;-68
2023/03/14 10:04:51;;;;;;;3.20;0.80;;;;;;;;;;5015372;28;20373;-68
2023/03/14 10:07:22;;;;;;;3.55;0.80;;;;;;;;;;5015382;28;20038;-68
2023/03/14 10:09:49;;;;;;;2.38;1.08;;;;;;;;;;5015190;28;20030;-68
2023/03/14 10:12:16;;;;;;;4.35;1.35;;;;;;;;;;5015092;28;20022;-68
2023/03/14 10:14:48;;;;;;;3.00;1.00;;;;;;;;;;5015246;28;20097;-68
2023/03/14 10:17:15;;;;;;;4.10;0.80;;;;;;;;;;5015306;28;20494;-68
2023/03/14 10:19:58;;;;;;;3.92;1.00;;;;;;;;;;5014929;28;20550;-68
2023/03/14 10:22:30;;;;;;;3.08;0.80;;;;;;;;;;5015179;28;20029;-68
2023/03/14 10:24:59;;;;;;;1.85;0.90;;;;;;;;;;5015083;28;20053;-68
2023/03/14 10:27:30;;;;;;;10.95;1.88;;;;;;;;;;5014428;28;20057;-69
2023/03/14 10:30:02;;;;;;;2.45;0.80;;;;;;;;;;5014645;28;20128;-69
2023/03/14 10:32:40;;;;;;;4.00;0.90;;;;;;;;;;5014879;28;20033;-68
2023/03/14 10:35:14;;;;;;;2.33;1.05;;;;;;;;;;5014329;28;20479;-68
2023/03/14 10:37:52;;;;;;;3.22;0.80;;;;;;;;;;5014743;28;20434;-68
2023/03/14 10:50:30;;;;;;;2.25;0.80;;;;;;;;;;4926980;29;20183;-67
2023/03/14 10:52:57;;;;;;;3.08;0.80;;;;;;;;;;4934911;29;20039;-68
2023/03/14 10:55:26;;;;;;;1.75;0.80;;;;;;;;;;4933896;29;20460;-69
2023/03/14 10:57:52;;;;;;;1.77;0.75;;;;;;;;;;4933681;29;20066;-68
2023/03/14 11:00:20;;;;;;;2.53;0.77;;;;;;;;;;4918980;29;20024;-69
2023/03/14 11:02:46;;;;;;;3.75;0.93;;;;;;;;;;4934673;29;20103;-69
2023/03/14 11:05:30;;;;;;;2.50;0.80;;;;;;;;;;4934203;29;20040;-69
2023/03/14 11:08:09;;;;;;;2.40;0.70;;;;;;;;;;4934538;29;20512;-69
2023/03/14 11:10:34;;;;;;;1.67;0.70;;;;;;;;;;4934662;29;20396;-69
2023/03/14 11:13:15;;;;;;;2.83;0.70;;;;;;;;;;4934688;29;20047;-69
2023/03/14 11:15:57;;;;;;;4.53;0.82;;;;;;;;;;4934677;29;20051;-69
2023/03/14 11:18:36;;;;;;;3.33;1.05;;;;;;;;;;4934322;29;20107;-69
2023/03/14 11:21:21;;;;;;;2.08;0.80;;;;;;;;;;4953356;28;20042;-69
2023/03/14 11:24:08;;;;;;;1.70;0.70;;;;;;;;;;4975027;28;20035;-69
2023/03/14 11:26:45;;;;;;;3.05;0.80;;;;;;;;;;4974578;28;20562;-70
2023/03/14 11:29:21;;;;;;;3.80;0.75;;;;;;;;;;4974764;28;20431;-69
2023/03/14 11:31:47;;;;;;;3.20;0.75;;;;;;;;;;4974856;28;20030;-68
2023/03/14 11:34:28;;;;;;;2.25;0.80;;;;;;;;;;4974397;28;20038;-68
2023/03/14 11:37:03;;;;;;;5.78;0.80;;;;;;;;;;5001454;28;20104;-68
2023/03/14 11:39:46;;;;;;;2.83;1.20;;;;;;;;;;5013649;28;20026;-68
2023/03/14 11:42:15;;;;;;;2.33;0.90;;;;;;;;;;5013513;28;20030;-68
2023/03/14 11:44:46;;;;;;;2.67;1.00;;;;;;;;;;5013555;28;20057;-68
2023/03/14 11:47:11;;;;;;;3.67;1.10;;;;;;;;;;5012849;28;20061;-68
2023/03/14 11:50:07;;;;;;;5.40;1.52;;;;;;;;;;5013523;28;20474;-68
2023/03/14 11:52:37;;;;;;;4.65;1.05;;;;;;;;;;5033004;28;20044;-68
2023/03/14 11:55:17;;;;;;;8.27;1.52;;;;;;;;;;5033158;28;20161;-68
2023/03/14 11:57:43;;;;;;;5.45;1.52;;;;;;;;;;5033144;28;20482;-68
2023/03/14 12:00:21;;;;;;;6.85;1.30;;;;;;;;;;5032840;28;20470;-69
2023/03/14 12:03:11;;;;;;;4.30;0.90;;;;;;;;;;5032685;28;20367;-68
2023/03/14 12:05:45;;;;;;;5.18;1.20;;;;;;;;;;5033051;28;20025;-68
2023/03/14 12:08:32;;;;;;;3.30;1.00;;;;;;;;;;5032677;28;20053;-69
2023/03/14 12:11:15;;;;;;;2.95;0.88;;;;;;;;;;5032975;28;20392;-68
2023/03/14 12:13:45;;;;;;;1.95;0.95;;;;;;;;;;5033024;28;20104;-69
2023/03/14 12:16:22;;;;;;;;;;;;;;;;;;5033067;28;20501;-68
2023/03/14 12:18:48;;;;;;;2.33;1.00;;;;;;;;;;5032656;28;20011;-69
2023/03/14 12:21:13;;;;;;;4.18;0.93;;;;;;;;;;5032700;28;20112;-69
2023/03/14 12:23:44;;;;;;;3.58;1.17;;;;;;;;;;5032537;28;20064;-69
2023/03/14 12:26:12;;;;;;;3.78;1.08;;;;;;;;;;5020701;28;20030;-68
2023/03/14 12:28:44;;;;;;;2.47;0.88;;;;;;;;;;5012774;28;20030;-68
2023/03/14 12:31:32;;;;;;;3.47;1.02;;;;;;;;;;5012786;28;20585;-70
2023/03/14 12:34:24;;;;;;;4.93;1.50;;;;;;;;;;4971579;28;20455;-69
2023/03/14 12:37:05;;;;;;;4.05;1.50;;;;;;;;;;4971355;28;20038;-69
2023/03/14 12:39:59;;;;;;;3.03;0.90;;;;;;;;;;4971734;28;20035;-69
2023/03/14 12:42:30;;;;;;;5.25;1.30;;;;;;;;;;4971464;28;20064;-68
2023/03/14 12:45:14;;;;;;;6.53;1.10;;;;;;;;;;4971536;28;20089;-69
2023/03/14 12:47:39;;;;;;;2.80;1.05;;;;;;;;;;4971076;28;20031;-69
2023/03/14 12:50:15;;;;;;;2.85;0.90;;;;;;;;;;4971007;28;20069;-69
2023/03/14 12:52:52;;;;;;;3.25;0.90;;;;;;;;;;4971204;28;20066;-69
2023/03/14 12:55:24;;;;;;;5.22;0.98;;;;;;;;;;4971212;28;20039;-68
2023/03/14 12:57:58;;;;;;;2.72;1.35;;;;;;;;;;4973606;28;20484;-68
2023/03/14 13:00:32;;;;;;;3.60;1.00;;;;;;;;;;4965911;28;20400;-68
2023/03/14 13:03:13;;;;;;;4.15;1.13;;;;;;;;;;4955376;28;20042;-69
2023/03/14 13:06:01;;;;;;;2.67;1.02;;;;;;;;;;4956145;29;20039;-69
2023/03/14 13:08:42;;;;;;;3.95;0.90;;;;;;;;;;4955800;28;20031;-68
2023/03/14 13:11:16;;;;;;;2.65;1.10;;;;;;;;;;4979141;28;20077;-69
2023/03/14 13:13:51;;;;;;;4.60;1.17;;;;;;;;;;4997123;28;20031;-69
2023/03/14 13:16:20;;;;;;;5.00;1.13;;;;;;;;;;4996497;28;20434;-69
2023/03/14 13:19:18;;;;;;;5.40;1.30;;;;;;;;;;4996701;28;20030;-69
2023/03/14 13:21:44;;;;;;;3.42;1.15;;;;;;;;;;4917338;29;20493;-68
2023/03/14 13:24:35;;;;;;;13.65;1.80;;;;;;;;;;4917310;29;20038;-69
2023/03/14 13:27:01;;;;;;;5.22;1.23;;;;;;;;;;4915640;29;20116;-69
2023/03/14 13:29:31;;;;;;;3.55;1.10;;;;;;;;;;4917534;29;20036;-68
2023/03/14 13:31:59;;;;;;;3.80;1.30;;;;;;;;;;4917517;29;20059;-69
2023/03/14 13:34:34;;;;;;;5.47;1.35;;;;;;;;;;4917023;29;20048;-68
2023/03/14 13:37:00;;;;;;;3.55;1.00;;;;;;;;;;4917438;29;20111;-69
2023/03/14 13:39:28;;;;;;;3.22;1.10;;;;;;;;;;4917258;29;20506;-68
2023/03/14 13:41:58;;;;;;;3.63;1.15;;;;;;;;;;4917206;29;20120;-69
2023/03/14 13:44:34;;;;;;;6.13;1.63;;;;;;;;;;4916865;29;20040;-69
2023/03/14 13:47:01;;;;;;;4.65;1.42;;;;;;;;;;4917196;29;20036;-69
2023/03/14 13:49:31;;;;;;;4.97;1.30;;;;;;;;;;4917158;29;20076;-68
2023/03/14 13:51:56;;;;;;;3.95;1.20;;;;;;;;;;4916832;29;20128;-69
2023/03/14 13:54:22;;;;;;;2.00;1.00;;;;;;;;;;4916317;29;20080;-68
2023/03/14 13:56:58;;;;;;;4.35;1.50;;;;;;;;;;4939675;28;20047;-69
2023/03/14 13:59:26;;;;;;;3.20;1.20;;;;;;;;;;4995771;28;20052;-68
2023/03/14 14:01:53;;;;;;;4.72;1.50;;;;;;;;;;4995950;28;20034;-68
2023/03/14 14:04:22;;;;;;;4.80;2.00;;;;;;;;;;4995639;28;20026;-67
2023/03/14 14:06:59;;;;;;;6.80;2.10;;;;;;;;;;4978025;28;20030;-67
2023/03/14 14:09:28;;;;;;;6.65;2.70;;;;;;;;;;4995111;28;20023;-68
2023/03/14 14:12:05;;;;;;;7.20;2.40;;;;;;;;;;5010613;28;20030;-68
2023/03/14 14:14:40;;;;;;;5.15;2.00;;;;;;;;;;5014687;28;20030;-68
2023/03/14 14:17:10;;;;;;;5.68;1.50;;;;;;;;;;5015213;28;20483;-68
2023/03/14 14:19:37;;;;;;;6.68;1.80;;;;;;;;;;5015143;28;20056;-69
2023/03/14 14:22:03;;;;;;;3.92;1.73;;;;;;;;;;5015238;28;20030;-69
2023/03/14 14:24:31;;;;;;;4.88;2.50;;;;;;;;;;5014880;28;20029;-69
2023/03/14 14:27:34;;;;;;;7.35;2.08;;;;;;;;;;4997388;28;20033;-69
2023/03/14 14:30:20;;;;;;;4.38;1.60;;;;;;;;;;5011738;28;20084;-69
2023/03/14 14:32:48;;;;;;;4.97;1.50;;;;;;;;;;4997819;28;20037;-69
2023/03/14 14:35:25;;;;;;;4.18;1.38;;;;;;;;;;5014841;28;20520;-69
2023/03/14 14:37:51;;;;;;;4.03;1.40;;;;;;;;;;5015040;28;20029;-69
2023/03/14 14:40:22;;;;;;;3.80;1.50;;;;;;;;;;5014806;28;20049;-69
2023/03/14 14:42:49;;;;;;;2.53;1.20;;;;;;;;;;5014528;28;20041;-69
2023/03/14 14:45:27;;;;;;;2.75;1.20;;;;;;;;;;5014592;28;20466;-69
2023/03/14 14:47:55;;;;;;;7.55;1.30;;;;;;;;;;5014677;28;20037;-69
2023/03/14 14:50:29;;;;;;;2.78;1.30;;;;;;;;;;5014454;28;20494;-69
2023/03/14 14:53:00;;;;;;;3.63;1.95;;;;;;;;;;5022086;28;20032;-69
2023/03/14 14:55:29;;;;;;;;;;;;;;;;;;5034557;28;20030;-69
2023/03/14 14:57:57;;;;;;;4.95;2.30;;;;;;;;;;5027493;28;19913;-69
2023/03/14 15:00:25;;;;;;;3.88;1.48;;;;;;;;;;4996394;28;20045;-69
2023/03/14 15:02:58;;;;;;;3.97;1.45;;;;;;;;;;5014372;28;20030;-69